Terminal Aerodrome Forecast
Issued by NWS Grand Rapids, MI

Home | Current Version | Previous Version | Text Only | Print | Product List | Glossary On
Versions: 1 2 3 4 5 6 7 8 9 10 11 12 13 14 15 16 17 18
000
FTUS43 KGRR 051145
TAFGRR
TAF
KGRR 051145Z 0512/0612 24011KT P6SM OVC023
     FM051600 22010KT 6SM HZ OVC015
     FM052100 19009KT 6SM HZ BKN025
     FM060300 14007KT P6SM SCT035=

USA.gov is the U.S. government's official web portal to all federal, state and local government web resources and services.